Wilson Algeciras — 9HA2471 — position and weather

sailwx.info

Track history (hours):
 
Tides and Currents Weather Stations Pressure Air Temp Water Temp Dewpoint Dewpoint Depression Visibility Wind Speed Wind Dir Waves Ship Positions

Wilson Algeciras

Last reported at 2015-May-21 10:06 UTC. Time now 2015-May-24 15:24 UTC.
Position N 58°23' E 005°19'.

Length 88 m; draft 5.4 m.

Type: Cargo ship. MMSI: 248689000.

Date/timePositionNaut miles runAvg speedWind from/ knotsBaromVisibWave heightAir tempDewpointWater temp
2015-May-21 10:06N 58°23' E 005°19'3110.1
2015-May-21 07:03N 58°04' E 006°03'139 8.8
2015-May-20 15:13N 57°49' E 010°23'6 9.0
2015-May-20 14:33N 57°50' E 010°34'9 7.1
2015-May-20 13:19N 57°44' E 010°47'8 9.8
2015-May-20 12:31N 57°36' E 010°46'  
2015-May-16 07:32N 56°14' E 011°05'1110.1
2015-May-16 06:26N 56°25' E 011°05'8 9.6
2015-May-16 05:33N 56°33' E 011°02'10 9.8
2015-May-16 04:32N 56°43' E 010°60'10 9.7
2015-May-16 03:32N 56°52' E 010°54'1010.2
2015-May-16 02:33N 57°02' E 010°49'1010.1
2015-May-16 01:33N 57°11' E 010°44'9 9.1
2015-May-16 00:31N 57°21' E 010°42'9 9.3
2015-May-15 23:31N 57°30' E 010°43'9 9.7
2015-May-15 22:33N 57°40' E 010°45'8 7.8
2015-May-15 21:33N 57°47' E 010°40'1010.3
2015-May-15 20:33N 57°46' E 010°20'1010.2
2015-May-15 19:32N 57°46' E 010°01'366 7.2
2015-May-13 16:27N 54°19' E 001°01'8 7.4
2015-May-13 15:25N 54°13' E 000°53'6 7.3
2015-May-13 14:34N 54°08' E 000°47'7 7.2
2015-May-13 13:33N 54°02' E 000°40'7 7.3
2015-May-13 12:33N 53°55' E 000°39'9 9.1
2015-May-13 11:33N 53°46' E 000°35'9 9.0
2015-May-13 10:33N 53°39' E 000°27'3 2.7
2015-May-13 09:31N 53°36' E 000°25'0 0.0
2015-May-13 08:31N 53°36' E 000°25'0 0.0
2015-May-13 04:28N 53°36' E 000°25'0 0.0
2015-May-13 03:16N 53°36' E 000°25'0 0.1
2015-May-13 02:31N 53°36' E 000°25'0 0.1
2015-May-13 01:31N 53°36' E 000°25'0 0.0
2015-May-13 00:31N 53°36' E 000°25'0 0.0
2015-May-12 23:25N 53°36' E 000°25'0 0.0
2015-May-12 22:22N 53°36' E 000°25'0 0.0
2015-May-12 21:28N 53°36' E 000°25'0 0.0
2015-May-12 20:28N 53°36' E 000°25'0 0.0
2015-May-12 19:31N 53°36' E 000°25'0 0.0
2015-May-12 18:25N 53°36' E 000°25'0 0.0
2015-May-12 17:25N 53°36' E 000°25'0 0.0
2015-May-12 16:22N 53°36' E 000°25'0 0.0
2015-May-12 15:25N 53°36' E 000°25'0 0.0
2015-May-12 14:28N 53°36' E 000°25'0 0.0
2015-May-12 13:25N 53°36' E 000°25'0 0.0
2015-May-12 12:28N 53°36' E 000°25'0 0.0
2015-May-12 11:31N 53°36' E 000°25'0 0.0
2015-May-12 10:31N 53°36' E 000°25'0 0.0
2015-May-12 09:19N 53°36' E 000°25'0 0.1
2015-May-12 08:19N 53°36' E 000°25'0 0.0
2015-May-12 07:22N 53°36' E 000°25'0 0.0
2015-May-12 06:25N 53°36' E 000°25'0 0.1
2015-May-12 05:28N 53°36' E 000°25'0 0.0
2015-May-12 04:31N 53°36' E 000°25'0 0.0
2015-May-12 02:13N 53°36' E 000°25'0 0.0
2015-May-12 01:25N 53°36' E 000°25'0 0.0
2015-May-12 00:25N 53°36' E 000°25'0 0.1
2015-May-11 23:28N 53°36' E 000°25'0 0.0
2015-May-11 22:28N 53°36' E 000°25'0 0.0
2015-May-11 21:16N 53°36' E 000°25'0 0.0
2015-May-11 20:31N 53°36' E 000°25'2 2.2
2015-May-11 19:33N 53°34' E 000°24'9 9.3
2015-May-11 18:33N 53°33' E 000°09'1010.2
2015-May-11 17:34N 53°37' W 000°07'3 2.7
2015-May-11 16:31N 53°38' W 000°12'0 0.0
2015-May-11 15:31N 53°38' W 000°12'0 0.0
2015-May-11 14:31N 53°38' W 000°12'0 0.0
2015-May-11 13:31N 53°38' W 000°12'0 0.0
2015-May-11 12:31N 53°38' W 000°12'0 0.0
2015-May-11 11:25N 53°38' W 000°12'0 0.0
2015-May-11 10:31N 53°38' W 000°12'  
Track history (hours):
 
Tides and Currents Weather Stations Pressure Air Temp Water Temp Dewpoint Dewpoint Depression Visibility Wind Speed Wind Dir Waves Ship Positions

Wilson Algeciras

Last reported at 2015-May-21 10:06 UTC. Time now 2015-May-24 15:24 UTC.
Position N 58°23' E 005°19'.

Length 88 m; draft 5.4 m.

Type: Cargo ship. MMSI: 248689000.

Date/timePositionNaut miles runAvg speedWind from/ knotsBaromVisibWave heightAir tempDewpointWater temp
2015-May-21 10:06N 58°23' E 005°19'3110.1
2015-May-21 07:03N 58°04' E 006°03'139 8.8
2015-May-20 15:13N 57°49' E 010°23'6 9.0
2015-May-20 14:33N 57°50' E 010°34'9 7.1
2015-May-20 13:19N 57°44' E 010°47'8 9.8
2015-May-20 12:31N 57°36' E 010°46'  
2015-May-16 07:32N 56°14' E 011°05'1110.1
2015-May-16 06:26N 56°25' E 011°05'8 9.6
2015-May-16 05:33N 56°33' E 011°02'10 9.8
2015-May-16 04:32N 56°43' E 010°60'10 9.7
2015-May-16 03:32N 56°52' E 010°54'1010.2
2015-May-16 02:33N 57°02' E 010°49'1010.1
2015-May-16 01:33N 57°11' E 010°44'9 9.1
2015-May-16 00:31N 57°21' E 010°42'9 9.3
2015-May-15 23:31N 57°30' E 010°43'9 9.7
2015-May-15 22:33N 57°40' E 010°45'8 7.8
2015-May-15 21:33N 57°47' E 010°40'1010.3
2015-May-15 20:33N 57°46' E 010°20'1010.2
2015-May-15 19:32N 57°46' E 010°01'366 7.2
2015-May-13 16:27N 54°19' E 001°01'8 7.4
2015-May-13 15:25N 54°13' E 000°53'6 7.3
2015-May-13 14:34N 54°08' E 000°47'7 7.2
2015-May-13 13:33N 54°02' E 000°40'7 7.3
2015-May-13 12:33N 53°55' E 000°39'9 9.1
2015-May-13 11:33N 53°46' E 000°35'9 9.0
2015-May-13 10:33N 53°39' E 000°27'3 2.7
2015-May-13 09:31N 53°36' E 000°25'0 0.0
2015-May-13 08:31N 53°36' E 000°25'0 0.0
2015-May-13 04:28N 53°36' E 000°25'0 0.0
2015-May-13 03:16N 53°36' E 000°25'0 0.1
2015-May-13 02:31N 53°36' E 000°25'0 0.1
2015-May-13 01:31N 53°36' E 000°25'0 0.0
2015-May-13 00:31N 53°36' E 000°25'0 0.0
2015-May-12 23:25N 53°36' E 000°25'0 0.0
2015-May-12 22:22N 53°36' E 000°25'0 0.0
2015-May-12 21:28N 53°36' E 000°25'0 0.0
2015-May-12 20:28N 53°36' E 000°25'0 0.0
2015-May-12 19:31N 53°36' E 000°25'0 0.0
2015-May-12 18:25N 53°36' E 000°25'0 0.0
2015-May-12 17:25N 53°36' E 000°25'0 0.0
2015-May-12 16:22N 53°36' E 000°25'0 0.0
2015-May-12 15:25N 53°36' E 000°25'0 0.0
2015-May-12 14:28N 53°36' E 000°25'0 0.0
2015-May-12 13:25N 53°36' E 000°25'0 0.0
2015-May-12 12:28N 53°36' E 000°25'0 0.0
2015-May-12 11:31N 53°36' E 000°25'0 0.0
2015-May-12 10:31N 53°36' E 000°25'0 0.0
2015-May-12 09:19N 53°36' E 000°25'0 0.1
2015-May-12 08:19N 53°36' E 000°25'0 0.0
2015-May-12 07:22N 53°36' E 000°25'0 0.0
2015-May-12 06:25N 53°36' E 000°25'0 0.1
2015-May-12 05:28N 53°36' E 000°25'0 0.0
2015-May-12 04:31N 53°36' E 000°25'0 0.0
2015-May-12 02:13N 53°36' E 000°25'0 0.0
2015-May-12 01:25N 53°36' E 000°25'0 0.0
2015-May-12 00:25N 53°36' E 000°25'0 0.1
2015-May-11 23:28N 53°36' E 000°25'0 0.0
2015-May-11 22:28N 53°36' E 000°25'0 0.0
2015-May-11 21:16N 53°36' E 000°25'0 0.0
2015-May-11 20:31N 53°36' E 000°25'2 2.2
2015-May-11 19:33N 53°34' E 000°24'9 9.3
2015-May-11 18:33N 53°33' E 000°09'1010.2
2015-May-11 17:34N 53°37' W 000°07'3 2.7
2015-May-11 16:31N 53°38' W 000°12'0 0.0
2015-May-11 15:31N 53°38' W 000°12'0 0.0
2015-May-11 14:31N 53°38' W 000°12'0 0.0
2015-May-11 13:31N 53°38' W 000°12'0 0.0
2015-May-11 12:31N 53°38' W 000°12'0 0.0
2015-May-11 11:25N 53°38' W 000°12'0 0.0
2015-May-11 10:31N 53°38' W 000°12'  

Dump ship's entire track history